Time;durP1;ratioP1;P1;durP2;ratioP2;P2;SDS_P1;SDS_P2;PMS_P1;PMS_P2;Temp;Humidity;BMP_temperature;BMP_pressure;BME280_temperature;BME280_humidity;BME280_pressure;Samples;Min_cycle;Max_cycle;Signal;HPM_P1;HPM_P2
2021/04/06 00:01:36;;;;;;;9.20;8.50;;;-0.30;99.90;;;;;;5012345;28;20960;-79
2021/04/06 00:04:07;;;;;;;9.60;8.80;;;-0.30;99.90;;;;;;5012155;28;20463;-79
2021/04/06 00:06:37;;;;;;;9.50;8.80;;;-0.20;99.90;;;;;;5012776;28;20443;-79
2021/04/06 00:09:08;;;;;;;9.30;8.60;;;-0.10;99.90;;;;;;5036882;28;20447;-79
2021/04/06 00:11:37;;;;;;;9.57;8.87;;;-0.10;99.90;;;;;;5009085;28;20435;-79
2021/04/06 00:14:05;;;;;;;10.27;9.37;;;0.00;99.90;;;;;;5013281;28;20448;-81
2021/04/06 00:16:32;;;;;;;9.57;8.87;;;0.20;99.90;;;;;;5011953;28;21047;-81
2021/04/06 00:19:00;;;;;;;10.30;9.20;;;0.20;99.90;;;;;;5011751;28;20463;-79
2021/04/06 00:21:27;;;;;;;10.33;9.20;;;0.10;99.90;;;;;;5013055;28;20966;-79
2021/04/06 00:23:55;;;;;;;10.40;9.40;;;0.20;99.90;;;;;;5011900;28;20471;-81
2021/04/06 00:26:22;;;;;;;9.63;9.03;;;0.10;99.90;;;;;;5012876;28;20431;-79
2021/04/06 00:28:50;;;;;;;9.87;8.93;;;0.10;99.90;;;;;;5036210;28;20448;-81
2021/04/06 00:31:18;;;;;;;10.27;9.23;;;0.10;99.90;;;;;;5036662;28;20450;-79
2021/04/06 00:33:48;;;;;;;9.73;8.93;;;0.10;99.90;;;;;;5012093;28;20464;-79
2021/04/06 00:36:25;;;;;;;10.17;9.40;;;0.10;99.90;;;;;;5013126;28;20427;-79
2021/04/06 00:38:54;;;;;;;10.43;9.63;;;0.00;99.90;;;;;;5013227;28;20439;-79
2021/04/06 00:41:22;;;;;;;10.17;9.17;;;0.10;99.90;;;;;;5011765;28;20443;-79
2021/04/06 00:43:50;;;;;;;10.23;9.30;;;0.00;99.90;;;;;;5013325;28;20467;-79
2021/04/06 00:46:21;;;;;;;11.60;9.40;;;0.10;99.90;;;;;;5012510;28;20438;-79
2021/04/06 00:48:52;;;;;;;10.07;9.20;;;0.00;99.90;;;;;;5011764;28;20446;-79
2021/04/06 00:51:19;;;;;;;10.40;9.33;;;0.00;99.90;;;;;;5013417;28;20490;-80
2021/04/06 00:54:00;;;;;;;10.70;9.63;;;0.00;99.90;;;;;;5013339;28;20514;-79
2021/04/06 00:56:29;;;;;;;10.27;9.27;;;0.00;99.90;;;;;;5012657;28;20490;-79
2021/04/06 00:58:57;;;;;;;10.03;9.13;;;-0.10;99.90;;;;;;5013050;28;20432;-79
2021/04/06 01:01:36;;;;;;;9.90;9.10;;;-0.10;99.90;;;;;;5011481;28;20451;-79
2021/04/06 01:04:06;;;;;;;10.10;9.23;;;-0.10;99.90;;;;;;5039329;28;20467;-79
2021/04/06 01:06:33;;;;;;;10.20;9.40;;;-0.20;99.90;;;;;;5012908;28;20459;-80
2021/04/06 01:09:00;;;;;;;11.60;9.47;;;-0.20;99.90;;;;;;5030697;28;20844;-80
2021/04/06 01:11:27;;;;;;;9.60;8.90;;;-0.20;99.90;;;;;;5035008;28;20480;-80
2021/04/06 01:14:00;;;;;;;9.93;9.03;;;-0.20;99.90;;;;;;5018857;28;20521;-80
2021/04/06 01:16:26;;;;;;;10.13;9.27;;;-0.30;99.90;;;;;;5037253;28;20497;-79
2021/04/06 01:18:54;;;;;;;10.43;9.17;;;-0.30;99.90;;;;;;5022269;28;20485;-80
2021/04/06 01:21:22;;;;;;;9.67;8.97;;;-0.20;99.90;;;;;;5021229;28;20559;-80
2021/04/06 01:23:49;;;;;;;9.70;9.00;;;-0.30;99.90;;;;;;5019306;28;20472;-80
2021/04/06 01:26:16;;;;;;;9.97;9.20;;;-0.30;99.90;;;;;;5018763;28;20447;-81
2021/04/06 01:28:43;;;;;;;10.47;9.37;;;-0.30;99.90;;;;;;5018817;28;20451;-78
2021/04/06 01:31:10;;;;;;;9.80;9.10;;;-0.30;99.90;;;;;;5018172;28;20964;-80
2021/04/06 01:33:37;;;;;;;10.67;9.87;;;-0.30;99.90;;;;;;5019806;28;20467;-80
2021/04/06 01:36:05;;;;;;;10.33;9.53;;;-0.40;99.90;;;;;;5016822;28;20447;-79
2021/04/06 01:38:34;;;;;;;10.43;9.60;;;-0.50;99.90;;;;;;5018668;28;20782;-80
2021/04/06 01:41:03;;;;;;;9.63;8.83;;;-0.60;99.90;;;;;;5019796;28;20428;-79
2021/04/06 01:43:31;;;;;;;9.83;9.07;;;-0.60;99.90;;;;;;5043191;28;20444;-79
2021/04/06 01:45:59;;;;;;;10.13;9.37;;;-0.70;99.90;;;;;;5052441;23;20990;-76
2021/04/06 01:48:28;;;;;;;10.43;9.53;;;-0.60;99.90;;;;;;5026135;28;20849;-76
2021/04/06 01:50:56;;;;;;;10.07;9.13;;;-0.60;99.90;;;;;;5033379;28;20447;-76
2021/04/06 01:53:24;;;;;;;10.17;9.27;;;-0.60;99.90;;;;;;5049714;28;20492;-76
2021/04/06 01:55:54;;;;;;;10.37;9.43;;;-0.60;99.90;;;;;;5032865;28;20516;-76
2021/04/06 01:58:24;;;;;;;10.20;9.40;;;-0.70;99.90;;;;;;5033247;28;20454;-76
2021/04/06 02:01:07;;;;;;;10.60;9.80;;;-0.70;99.90;;;;;;5028244;28;20448;-76
2021/04/06 02:03:39;;;;;;;10.43;9.53;;;-0.70;99.90;;;;;;4995219;28;20508;-77
2021/04/06 02:06:07;;;;;;;10.80;9.70;;;-0.70;99.90;;;;;;4994428;28;20578;-76
2021/04/06 02:08:34;;;;;;;10.13;9.47;;;-0.70;99.90;;;;;;4995285;28;20440;-76
2021/04/06 02:11:01;;;;;;;10.60;9.77;;;-0.70;99.90;;;;;;5026995;28;20968;-76
2021/04/06 02:13:28;;;;;;;11.33;10.33;;;-0.70;99.90;;;;;;5030801;28;20439;-76
2021/04/06 02:15:56;;;;;;;10.50;9.67;;;-0.70;99.90;;;;;;5028530;28;20793;-76
2021/04/06 02:18:24;;;;;;;10.23;9.53;;;-0.70;99.90;;;;;;5023900;28;20450;-76
2021/04/06 02:20:54;;;;;;;10.47;9.63;;;-0.80;99.90;;;;;;5025778;28;20438;-76
2021/04/06 02:23:22;;;;;;;10.40;9.60;;;-0.80;99.90;;;;;;5029798;28;20492;-76
2021/04/06 02:25:53;;;;;;;10.37;9.47;;;-0.90;99.90;;;;;;5024975;28;20478;-76
2021/04/06 02:28:21;;;;;;;10.87;10.07;;;-0.90;99.90;;;;;;5025552;28;20438;-76
2021/04/06 02:30:54;;;;;;;10.87;10.03;;;-0.80;99.90;;;;;;5032419;28;20458;-75
2021/04/06 02:33:25;;;;;;;9.70;9.00;;;-0.90;99.90;;;;;;5028260;28;20435;-76
2021/04/06 02:35:59;;;;;;;10.27;9.57;;;-0.90;99.90;;;;;;5025864;28;20454;-76
2021/04/06 02:38:25;;;;;;;9.80;9.10;;;-0.90;99.90;;;;;;5024382;28;20453;-75
2021/04/06 02:41:03;;;;;;;9.83;9.03;;;-0.90;99.90;;;;;;5023982;28;20501;-75
2021/04/06 02:43:48;;;;;;;10.20;9.30;;;-1.00;99.90;;;;;;5024655;28;20486;-77
2021/04/06 02:46:19;;;;;;;10.43;9.43;;;-1.00;99.90;;;;;;5031845;28;20466;-77
2021/04/06 02:48:46;;;;;;;9.60;9.00;;;-1.00;99.90;;;;;;5023311;28;20439;-79
2021/04/06 02:51:13;;;;;;;10.20;9.40;;;-1.10;99.90;;;;;;5015228;28;20527;-78
2021/04/06 02:53:40;;;;;;;9.80;9.13;;;-1.10;99.90;;;;;;5028711;28;20505;-78
2021/04/06 02:56:08;;;;;;;9.60;9.00;;;-1.10;99.90;;;;;;5027062;28;20520;-77
2021/04/06 02:58:39;;;;;;;10.17;9.47;;;-1.10;99.90;;;;;;5008481;28;20435;-77
2021/04/06 03:01:13;;;;;;;10.33;9.60;;;-1.20;99.90;;;;;;5011941;28;20445;-77
2021/04/06 03:03:40;;;;;;;9.83;8.90;;;-1.20;99.90;;;;;;5010417;28;20458;-77
2021/04/06 03:06:09;;;;;;;10.00;9.20;;;-1.10;99.90;;;;;;5026078;28;20540;-77
2021/04/06 03:08:37;;;;;;;10.00;9.03;;;-1.20;99.90;;;;;;5030452;28;20464;-77
2021/04/06 03:11:06;;;;;;;12.50;9.50;;;-1.10;99.90;;;;;;5028877;28;20443;-78
2021/04/06 03:13:32;;;;;;;10.17;9.07;;;-1.20;99.90;;;;;;5026693;28;20953;-76
2021/04/06 03:15:59;;;;;;;11.87;10.13;;;-1.20;99.90;;;;;;5013115;28;20468;-76
2021/04/06 03:18:33;;;;;;;11.00;10.10;;;-1.30;99.90;;;;;;5011983;28;20977;-76
2021/04/06 03:21:06;;;;;;;11.23;10.17;;;-1.30;99.90;;;;;;5011795;28;20796;-76
2021/04/06 03:23:34;;;;;;;9.80;8.93;;;-1.30;99.90;;;;;;5012736;28;20442;-76
2021/04/06 03:26:02;;;;;;;11.20;9.57;;;-1.40;99.90;;;;;;5011287;28;20479;-76
2021/04/06 03:28:33;;;;;;;10.43;9.43;;;-1.40;99.90;;;;;;5013218;28;20438;-76
2021/04/06 03:31:11;;;;;;;10.13;9.23;;;-1.30;99.90;;;;;;5016063;28;20451;-76
2021/04/06 03:33:40;;;;;;;10.73;9.83;;;-1.30;99.90;;;;;;5009755;28;20459;-77
2021/04/06 03:36:07;;;;;;;10.50;9.60;;;-1.30;99.90;;;;;;4995338;28;20529;-76
2021/04/06 03:38:35;;;;;;;10.40;9.50;;;-1.30;99.90;;;;;;5007462;28;20437;-78
2021/04/06 03:41:02;;;;;;;9.87;9.10;;;-1.40;99.90;;;;;;5008315;28;20468;-76
2021/04/06 03:43:39;;;;;;;10.37;9.40;;;-1.30;99.90;;;;;;5013907;28;20458;-77
2021/04/06 03:46:07;;;;;;;10.80;9.80;;;-1.30;99.90;;;;;;5007446;28;20518;-77
2021/04/06 03:48:35;;;;;;;10.03;9.13;;;-1.30;99.90;;;;;;5014333;28;20455;-77
2021/04/06 03:51:02;;;;;;;9.90;9.10;;;-1.30;99.90;;;;;;5010887;28;20471;-77
2021/04/06 03:53:40;;;;;;;10.33;8.97;;;-1.30;99.90;;;;;;5014460;28;20439;-77
2021/04/06 03:56:08;;;;;;;9.43;8.73;;;-1.30;99.90;;;;;;5027012;28;20467;-76
2021/04/06 03:58:38;;;;;;;9.47;8.60;;;-1.30;99.90;;;;;;5017821;28;20474;-77
2021/04/06 04:01:06;;;;;;;14.30;9.20;;;-1.30;99.90;;;;;;5008474;28;20425;-76
2021/04/06 04:03:33;;;;;;;9.20;8.40;;;-1.30;99.90;;;;;;5013271;28;20876;-76
2021/04/06 04:05:59;;;;;;;10.27;9.10;;;-1.30;99.90;;;;;;5010549;28;20476;-76
2021/04/06 04:08:25;;;;;;;9.47;8.63;;;-1.20;99.90;;;;;;5013486;28;20444;-76
2021/04/06 04:10:53;;;;;;;9.40;8.50;;;-1.20;99.90;;;;;;5007050;28;20455;-76
2021/04/06 04:13:19;;;;;;;9.80;8.97;;;-1.10;99.90;;;;;;5014985;28;20616;-76
2021/04/06 04:15:46;;;;;;;9.93;8.97;;;-1.00;99.90;;;;;;5015215;28;20465;-74
2021/04/06 04:18:12;;;;;;;9.07;8.30;;;-1.00;99.90;;;;;;5034514;28;20497;-74
2021/04/06 04:20:38;;;;;;;9.73;8.93;;;-0.90;99.90;;;;;;5026912;28;20434;-73
2021/04/06 04:23:05;;;;;;;9.73;8.70;;;-0.90;99.90;;;;;;5014320;28;20443;-73
2021/04/06 04:25:31;;;;;;;10.03;9.03;;;-0.80;99.90;;;;;;5032924;28;20581;-74
2021/04/06 04:27:58;;;;;;;9.17;8.37;;;-0.80;99.90;;;;;;5025553;28;20829;-74
2021/04/06 04:30:41;;;;;;;10.03;8.60;;;-0.70;99.90;;;;;;5012006;28;20447;-74
2021/04/06 04:33:10;;;;;;;9.17;8.27;;;-0.70;99.90;;;;;;5015395;28;20432;-74
2021/04/06 04:35:37;;;;;;;9.67;8.70;;;-0.70;99.90;;;;;;5020283;28;20461;-72
2021/04/06 04:38:03;;;;;;;9.60;8.60;;;-0.60;99.90;;;;;;5032638;28;20966;-75
2021/04/06 04:40:30;;;;;;;10.60;7.87;;;-0.60;99.90;;;;;;5030099;28;20452;-79
2021/04/06 04:42:58;;;;;;;8.50;7.70;;;-0.60;99.90;;;;;;5010173;28;20455;-76
2021/04/06 04:45:25;;;;;;;10.57;9.53;;;-0.60;99.90;;;;;;5009108;28;20483;-77
2021/04/06 04:47:52;;;;;;;14.03;9.03;;;-0.60;99.90;;;;;;5021845;28;20516;-77
2021/04/06 04:50:20;;;;;;;9.17;7.90;;;-0.50;99.90;;;;;;5027681;28;20461;-77
2021/04/06 04:52:47;;;;;;;9.07;7.83;;;-0.50;99.90;;;;;;5016873;28;20458;-76
2021/04/06 04:55:16;;;;;;;13.87;8.23;;;-0.50;99.90;;;;;;5028515;28;20462;-77
2021/04/06 04:57:43;;;;;;;9.10;7.67;;;-0.50;99.90;;;;;;5024365;28;20956;-77
2021/04/06 05:00:12;;;;;;;8.67;7.87;;;-0.50;99.90;;;;;;5027056;28;20554;-77
2021/04/06 05:02:39;;;;;;;10.07;8.07;;;-0.50;99.90;;;;;;5008184;28;20474;-78
2021/04/06 05:05:07;;;;;;;8.90;8.10;;;-0.40;99.90;;;;;;5017921;28;20564;-78
2021/04/06 05:07:33;;;;;;;8.90;7.80;;;-0.40;99.90;;;;;;5008702;28;20454;-77
2021/04/06 05:09:59;;;;;;;10.03;8.30;;;-0.40;99.90;;;;;;5020257;28;20935;-76
2021/04/06 05:12:26;;;;;;;8.67;7.90;;;-0.30;99.90;;;;;;5023651;28;20454;-76
2021/04/06 05:14:54;;;;;;;8.20;7.43;;;-0.30;99.90;;;;;;5027913;28;20477;-76
2021/04/06 05:17:22;;;;;;;8.47;7.83;;;-0.30;99.90;;;;;;5023084;28;20451;-76
2021/04/06 05:19:48;;;;;;;8.30;7.50;;;-0.20;99.90;;;;;;5016051;28;20530;-76
2021/04/06 05:22:14;;;;;;;9.80;7.90;;;-0.20;99.90;;;;;;5032987;28;20492;-77
2021/04/06 05:24:43;;;;;;;8.60;7.80;;;-0.20;99.90;;;;;;5028727;28;20475;-75
2021/04/06 05:27:09;;;;;;;10.50;8.43;;;-0.10;99.90;;;;;;5030407;28;20923;-76
2021/04/06 05:29:36;;;;;;;8.40;7.67;;;-0.10;99.90;;;;;;5034849;28;20549;-77
2021/04/06 05:32:02;;;;;;;8.47;7.63;;;-0.10;99.90;;;;;;5025686;28;20450;-76
2021/04/06 05:34:30;;;;;;;9.63;7.63;;;-0.10;99.90;;;;;;5020399;28;20475;-77
2021/04/06 05:36:56;;;;;;;8.57;7.87;;;-0.10;99.90;;;;;;5026374;28;20436;-77
2021/04/06 05:39:23;;;;;;;8.43;7.73;;;0.00;99.90;;;;;;5032975;28;20783;-76
2021/04/06 05:41:49;;;;;;;8.03;7.53;;;0.00;99.90;;;;;;5028732;28;20431;-77
2021/04/06 05:44:17;;;;;;;8.50;7.80;;;0.00;99.90;;;;;;5027654;28;20486;-76
2021/04/06 05:46:46;;;;;;;9.10;8.30;;;0.00;99.90;;;;;;5034257;28;20431;-76
2021/04/06 05:49:14;;;;;;;9.80;9.00;;;0.00;99.90;;;;;;5030774;28;20501;-76
2021/04/06 05:51:42;;;;;;;9.40;8.60;;;0.10;99.90;;;;;;5032313;28;20447;-76
2021/04/06 05:54:11;;;;;;;9.43;8.70;;;0.10;99.90;;;;;;5028418;28;20868;-77
2021/04/06 05:56:37;;;;;;;10.07;9.17;;;0.20;99.90;;;;;;5030882;28;20454;-76
2021/04/06 05:59:05;;;;;;;10.67;9.23;;;0.30;99.90;;;;;;5028891;28;20932;-76
2021/04/06 06:01:34;;;;;;;10.03;9.23;;;0.40;99.90;;;;;;5025547;28;20469;-77
2021/04/06 06:04:01;;;;;;;9.33;8.50;;;0.40;99.90;;;;;;5033682;28;20512;-77
2021/04/06 06:06:28;;;;;;;9.03;8.33;;;0.50;99.90;;;;;;5031664;28;20470;-77
2021/04/06 06:08:58;;;;;;;9.33;8.43;;;0.60;99.90;;;;;;5032735;28;20451;-77
2021/04/06 06:11:25;;;;;;;9.40;8.57;;;0.60;99.90;;;;;;5026307;28;20450;-77
2021/04/06 06:13:51;;;;;;;9.57;8.53;;;0.60;99.90;;;;;;5013231;28;20448;-76
2021/04/06 06:16:20;;;;;;;8.83;8.10;;;0.70;99.90;;;;;;5013907;28;20468;-77
2021/04/06 06:18:56;;;;;;;9.63;8.77;;;0.70;99.90;;;;;;5021140;28;20534;-76
2021/04/06 06:21:23;;;;;;;9.33;8.17;;;0.70;99.90;;;;;;5009922;28;20990;-77
2021/04/06 06:23:50;;;;;;;10.47;8.27;;;0.70;99.90;;;;;;4999221;28;20451;-77
2021/04/06 06:26:19;;;;;;;8.73;7.93;;;0.80;99.90;;;;;;5002826;28;20480;-77
2021/04/06 06:29:12;;;;;;;8.70;8.00;;;0.80;99.90;;;;;;4997858;28;20464;-77
2021/04/06 06:31:43;;;;;;;8.30;7.50;;;0.90;99.90;;;;;;4997787;28;20458;-76
2021/04/06 06:34:33;;;;;;;12.00;7.80;;;1.00;99.90;;;;;;4997860;28;20559;-77
2021/04/06 06:37:12;;;;;;;8.93;7.70;;;1.10;99.90;;;;;;4997513;28;20507;-77
2021/04/06 06:39:41;;;;;;;7.87;7.27;;;1.20;99.90;;;;;;5004538;28;20990;-77
2021/04/06 06:42:10;;;;;;;6.70;6.20;;;1.20;99.90;;;;;;4997676;28;20445;-77
2021/04/06 06:44:38;;;;;;;7.80;6.93;;;1.20;99.90;;;;;;5001009;28;20499;-77
2021/04/06 06:47:08;;;;;;;8.00;7.00;;;1.30;99.90;;;;;;4997677;28;20433;-77
2021/04/06 06:49:36;;;;;;;9.60;6.90;;;1.30;99.90;;;;;;5000970;28;20516;-76
2021/04/06 06:52:10;;;;;;;9.20;7.33;;;1.40;99.90;;;;;;5001650;28;20441;-77
2021/04/06 06:54:41;;;;;;;7.50;6.80;;;1.50;99.90;;;;;;4998432;28;20459;-76
2021/04/06 06:57:10;;;;;;;9.73;6.93;;;1.50;99.90;;;;;;4998986;28;20440;-77
2021/04/06 06:59:37;;;;;;;9.37;7.63;;;1.50;99.90;;;;;;4998555;28;20449;-77
2021/04/06 07:02:20;;;;;;;8.87;8.13;;;1.40;99.90;;;;;;5000375;28;20812;-77
2021/04/06 07:04:46;;;;;;;10.37;7.77;;;1.50;99.90;;;;;;4997489;28;20862;-77
2021/04/06 07:07:13;;;;;;;7.50;6.80;;;1.50;99.90;;;;;;4998752;28;20455;-77
2021/04/06 07:09:40;;;;;;;8.67;7.80;;;1.50;99.90;;;;;;5012012;28;20888;-77
2021/04/06 07:12:09;;;;;;;9.33;7.47;;;1.50;99.90;;;;;;4998627;28;20446;-76
2021/04/06 07:14:39;;;;;;;8.20;7.33;;;1.40;99.90;;;;;;4997383;28;21016;-77
2021/04/06 07:17:07;;;;;;;7.53;6.83;;;1.60;99.90;;;;;;5001031;28;20952;-77
2021/04/06 07:19:36;;;;;;;8.87;7.97;;;1.70;99.90;;;;;;4997247;28;20451;-77
2021/04/06 07:22:03;;;;;;;8.80;8.17;;;1.70;99.90;;;;;;4997123;28;20449;-77
2021/04/06 07:24:33;;;;;;;7.97;6.80;;;1.80;99.90;;;;;;5001128;28;20457;-77
2021/04/06 07:27:04;;;;;;;9.07;7.57;;;1.80;99.90;;;;;;4999874;28;20456;-77
2021/04/06 07:29:32;;;;;;;7.57;7.00;;;1.90;99.90;;;;;;5000333;28;20540;-77
2021/04/06 07:31:59;;;;;;;9.43;6.07;;;1.90;99.90;;;;;;4998349;28;20448;-77
2021/04/06 07:34:26;;;;;;;8.03;7.23;;;2.00;99.90;;;;;;5001167;28;20466;-77
2021/04/06 07:36:55;;;;;;;12.33;7.13;;;2.00;99.90;;;;;;5000258;28;20440;-76
2021/04/06 07:39:24;;;;;;;7.60;6.47;;;2.10;99.90;;;;;;5000694;28;20502;-77
2021/04/06 07:41:51;;;;;;;7.23;6.43;;;2.30;99.90;;;;;;5010512;28;20441;-77
2021/04/06 07:46:58;;;;;;;7.53;6.83;;;2.40;99.90;;;;;;4999106;28;20522;-79
2021/04/06 07:49:37;;;;;;;7.67;6.87;;;2.50;99.90;;;;;;4991737;28;20496;-79
2021/04/06 07:52:14;;;;;;;8.73;7.83;;;2.60;99.90;;;;;;4981277;28;20826;-78
2021/04/06 07:54:49;;;;;;;7.67;6.97;;;2.70;99.90;;;;;;4991421;28;20475;-79
2021/04/06 07:57:15;;;;;;;8.93;7.53;;;2.80;99.90;;;;;;4989332;28;20463;-79
2021/04/06 07:59:51;;;;;;;7.53;6.93;;;2.80;99.90;;;;;;4982527;28;20521;-79
2021/04/06 08:02:27;;;;;;;7.50;6.80;;;2.90;99.90;;;;;;4977305;28;20458;-78
2021/04/06 08:04:56;;;;;;;10.97;7.13;;;3.00;99.90;;;;;;4982706;28;20476;-78
2021/04/06 08:07:24;;;;;;;8.67;6.77;;;3.20;99.90;;;;;;4979162;28;20452;-78
2021/04/06 08:09:52;;;;;;;9.73;6.73;;;3.20;99.90;;;;;;4980546;28;20485;-78
2021/04/06 08:12:20;;;;;;;6.70;3.20;;;3.50;99.90;;;;;;4977266;28;20441;-79
2021/04/06 08:14:49;;;;;;;7.57;3.43;;;3.80;99.90;;;;;;4979382;28;20855;-78
2021/04/06 08:17:42;;;;;;;5.63;3.07;;;4.10;99.90;;;;;;4989747;28;20449;-78
2021/04/06 08:20:19;;;;;;;9.73;3.77;;;4.10;99.90;;;;;;4990376;28;20473;-79
2021/04/06 08:22:51;;;;;;;6.50;3.53;;;4.10;99.90;;;;;;4982222;28;20441;-78
2021/04/06 08:25:54;;;;;;;6.90;3.27;;;4.30;99.90;;;;;;4975752;28;20269;-79
2021/04/06 08:28:38;;;;;;;7.20;2.90;;;4.60;99.90;;;;;;4982356;28;20845;-78
2021/04/06 08:31:31;;;;;;;4.30;3.07;;;5.00;99.90;;;;;;4981614;28;20288;-79
2021/04/06 08:34:39;;;;;;;8.07;6.17;;;5.30;99.90;;;;;;4999804;28;20583;-79
2021/04/06 08:37:18;;;;;;;7.33;5.80;;;5.50;99.90;;;;;;4978061;28;20193;-79
2021/04/06 08:39:45;;;;;;;5.97;5.30;;;5.50;99.90;;;;;;4983617;28;20224;-78
2021/04/06 08:42:17;;;;;;;10.83;5.83;;;5.60;99.90;;;;;;4977436;28;20220;-79
2021/04/06 08:44:55;;;;;;;7.90;5.40;;;5.50;99.90;;;;;;4978577;28;20222;-78
2021/04/06 08:47:39;;;;;;;7.53;6.40;;;5.60;99.90;;;;;;4984144;28;20416;-79
2021/04/06 08:50:07;;;;;;;9.27;5.30;;;5.70;99.90;;;;;;4979707;28;20302;-81
2021/04/06 08:52:35;;;;;;;7.97;6.00;;;5.70;99.90;;;;;;4980535;28;20218;-79
2021/04/06 08:55:13;;;;;;;6.53;5.93;;;5.50;99.90;;;;;;4977313;28;20280;-77
2021/04/06 08:57:39;;;;;;;5.53;5.03;;;5.30;99.90;;;;;;4983342;28;20218;-77
2021/04/06 09:00:12;;;;;;;8.87;5.50;;;5.30;99.90;;;;;;4982261;28;20620;-77
2021/04/06 09:02:39;;;;;;;7.03;6.20;;;5.30;99.90;;;;;;4975646;28;20205;-78
2021/04/06 09:05:07;;;;;;;8.50;5.57;;;5.30;99.90;;;;;;4970299;28;20266;-77
2021/04/06 09:07:40;;;;;;;8.67;6.00;;;5.30;99.90;;;;;;4974697;28;20206;-77
2021/04/06 09:10:10;;;;;;;5.87;4.73;;;5.20;99.90;;;;;;4972434;28;20215;-77
2021/04/06 09:12:38;;;;;;;8.30;3.00;;;5.30;99.90;;;;;;4973647;28;20213;-77
2021/04/06 09:15:06;;;;;;;3.77;2.60;;;5.30;99.90;;;;;;4975200;28;20215;-79
2021/04/06 09:17:34;;;;;;;5.40;2.77;;;5.40;99.90;;;;;;4989872;28;20196;-78
2021/04/06 09:20:01;;;;;;;6.83;3.30;;;5.40;99.90;;;;;;4978524;28;20222;-77
2021/04/06 09:22:27;;;;;;;10.03;3.50;;;5.40;99.90;;;;;;4983135;28;20198;-78
2021/04/06 09:24:54;;;;;;;9.07;3.83;;;5.40;99.90;;;;;;4976645;28;20272;-78
2021/04/06 09:27:22;;;;;;;6.07;3.30;;;5.50;99.90;;;;;;4980703;28;20199;-77
2021/04/06 09:29:49;;;;;;;5.43;3.07;;;5.60;99.90;;;;;;4983345;28;20199;-78
2021/04/06 09:32:18;;;;;;;7.87;2.80;;;5.70;99.90;;;;;;4981774;28;20204;-77
2021/04/06 09:34:47;;;;;;;4.57;2.77;;;5.70;99.90;;;;;;4981496;28;20230;-77
2021/04/06 09:37:15;;;;;;;6.33;3.33;;;5.70;99.90;;;;;;4985528;28;20207;-80
2021/04/06 09:39:46;;;;;;;5.30;2.70;;;6.00;99.90;;;;;;5003150;28;20792;-79
2021/04/06 09:42:14;;;;;;;5.27;2.60;;;6.10;99.90;;;;;;4992442;28;20660;-79
2021/04/06 09:44:42;;;;;;;8.20;3.23;;;6.20;99.90;;;;;;4977154;28;20210;-79
2021/04/06 09:47:11;;;;;;;6.00;4.97;;;6.50;99.90;;;;;;4985595;28;20222;-79
2021/04/06 09:49:39;;;;;;;5.70;5.20;;;6.80;99.90;;;;;;4976789;28;20204;-79
2021/04/06 09:52:08;;;;;;;10.17;5.03;;;7.10;99.90;;;;;;4979228;28;20208;-84
2021/04/06 09:54:37;;;;;;;4.10;3.70;;;7.00;99.90;;;;;;4968115;28;20200;-80
2021/04/06 09:57:10;;;;;;;7.17;4.70;;;7.00;99.90;;;;;;4979426;28;20276;-82
2021/04/06 09:59:39;;;;;;;7.27;4.60;;;6.70;99.90;;;;;;4984438;28;20200;-79
2021/04/06 10:02:07;;;;;;;5.93;4.10;;;6.70;99.90;;;;;;4992715;28;20262;-82
2021/04/06 10:04:35;;;;;;;7.47;4.63;;;6.60;99.90;;;;;;4992574;28;20201;-82
2021/04/06 10:07:13;;;;;;;6.60;4.60;;;6.80;99.90;;;;;;4976366;28;20197;-82
2021/04/06 10:09:42;;;;;;;5.83;4.60;;;7.20;99.90;;;;;;4986691;28;20201;-77
2021/04/06 10:12:09;;;;;;;5.70;5.20;;;7.40;99.90;;;;;;4995855;28;20203;-79
2021/04/06 10:14:37;;;;;;;7.87;4.73;;;7.80;99.90;;;;;;4980717;28;20206;-77
2021/04/06 10:17:06;;;;;;;5.93;5.00;;;8.20;99.90;;;;;;4990237;28;20194;-80
2021/04/06 10:19:34;;;;;;;6.17;5.30;;;8.60;99.90;;;;;;4989935;28;20202;-79
2021/04/06 10:22:08;;;;;;;5.93;5.00;;;8.80;99.90;;;;;;4982962;28;20213;-79
2021/04/06 10:24:37;;;;;;;11.93;6.23;;;9.10;99.90;;;;;;4968761;28;20194;-79
2021/04/06 10:27:06;;;;;;;7.97;5.00;;;9.20;99.90;;;;;;4981542;28;20260;-79
2021/04/06 10:29:33;;;;;;;8.83;5.50;;;8.70;99.90;;;;;;4982932;28;20213;-79
2021/04/06 10:32:01;;;;;;;7.33;5.37;;;8.40;99.90;;;;;;4977725;28;20205;-79
2021/04/06 10:34:28;;;;;;;6.17;5.10;;;8.30;99.90;;;;;;4983170;28;20233;-79
2021/04/06 10:36:56;;;;;;;6.53;5.23;;;8.10;99.90;;;;;;4977740;28;20671;-79
2021/04/06 10:39:38;;;;;;;7.23;5.40;;;7.60;99.90;;;;;;4981307;28;20193;-78
2021/04/06 10:42:08;;;;;;;5.37;4.97;;;7.10;99.90;;;;;;4977777;28;20196;-78
2021/04/06 10:44:35;;;;;;;6.53;5.20;;;6.60;99.90;;;;;;4971606;28;20200;-76
2021/04/06 10:47:02;;;;;;;5.97;5.47;;;6.30;99.90;;;;;;4983586;28;20216;-78
2021/04/06 10:49:28;;;;;;;6.87;5.03;;;6.30;99.90;;;;;;4974693;28;20287;-77
2021/04/06 10:51:58;;;;;;;6.47;5.30;;;6.30;99.90;;;;;;4989213;28;20208;-78
2021/04/06 10:54:25;;;;;;;5.53;4.97;;;6.60;99.90;;;;;;4973744;28;20195;-78
2021/04/06 10:56:54;;;;;;;5.93;4.93;;;6.90;99.90;;;;;;4962998;28;20208;-78
2021/04/06 10:59:29;;;;;;;5.87;5.20;;;7.10;99.90;;;;;;4955797;28;20235;-78
2021/04/06 11:01:57;;;;;;;6.67;5.53;;;7.10;99.90;;;;;;4959104;28;20208;-80
2021/04/06 11:04:26;;;;;;;7.03;5.40;;;7.00;99.90;;;;;;4964745;28;20227;-80
2021/04/06 11:06:58;;;;;;;8.17;5.80;;;7.10;99.90;;;;;;4963603;28;20235;-79
2021/04/06 11:09:26;;;;;;;8.73;5.70;;;7.20;99.90;;;;;;4979449;28;20565;-80
2021/04/06 11:11:55;;;;;;;5.90;5.40;;;7.40;99.90;;;;;;4980658;28;20209;-80
2021/04/06 11:14:24;;;;;;;5.23;4.83;;;7.70;99.90;;;;;;4977228;28;20214;-80
2021/04/06 11:16:51;;;;;;;7.07;5.80;;;7.80;99.90;;;;;;4980014;28;20197;-80
2021/04/06 11:19:22;;;;;;;7.70;5.60;;;7.50;99.90;;;;;;4962016;28;20516;-80
2021/04/06 11:21:51;;;;;;;5.63;4.90;;;7.30;99.90;;;;;;4978252;28;20213;-80
2021/04/06 11:24:19;;;;;;;5.27;4.87;;;7.10;99.90;;;;;;4978361;28;20583;-81
2021/04/06 11:26:46;;;;;;;5.00;4.50;;;7.50;99.90;;;;;;4963279;28;20229;-80
2021/04/06 11:29:14;;;;;;;5.87;5.10;;;7.70;99.90;;;;;;4980047;28;20210;-81
2021/04/06 11:31:45;;;;;;;7.47;5.20;;;8.00;99.90;;;;;;4977557;28;20201;-80
2021/04/06 11:34:12;;;;;;;7.37;4.80;;;7.70;99.90;;;;;;4962650;28;20569;-80
2021/04/06 11:36:39;;;;;;;7.03;4.83;;;7.50;99.90;;;;;;4963359;28;20217;-80
2021/04/06 11:39:09;;;;;;;5.30;4.90;;;7.30;99.90;;;;;;4975192;28;20217;-80
2021/04/06 11:41:36;;;;;;;5.23;4.73;;;7.40;99.90;;;;;;4977236;28;20206;-79
2021/04/06 11:44:02;;;;;;;6.97;5.13;;;7.30;99.90;;;;;;4959906;28;20198;-80
2021/04/06 11:46:29;;;;;;;6.30;5.70;;;6.90;99.90;;;;;;4963052;28;20298;-80
2021/04/06 11:48:55;;;;;;;5.57;5.00;;;6.60;99.90;;;;;;4963376;28;20236;-80
2021/04/06 11:51:22;;;;;;;6.67;5.27;;;6.40;99.90;;;;;;4960201;28;20200;-80
2021/04/06 11:53:49;;;;;;;5.77;5.27;;;6.30;99.90;;;;;;4960519;28;20688;-80
2021/04/06 11:56:16;;;;;;;7.77;5.73;;;6.00;99.90;;;;;;4975523;28;20215;-80
2021/04/06 11:58:43;;;;;;;5.80;5.30;;;5.60;99.90;;;;;;4961072;28;20195;-80
2021/04/06 12:01:09;;;;;;;5.77;5.27;;;5.70;99.90;;;;;;4963022;28;20237;-80
2021/04/06 12:03:36;;;;;;;5.60;5.07;;;5.80;99.90;;;;;;4974566;28;20203;-80
2021/04/06 12:06:02;;;;;;;5.97;5.33;;;5.90;99.90;;;;;;4971896;28;20227;-79
2021/04/06 12:08:29;;;;;;;5.90;5.30;;;5.90;99.90;;;;;;4990552;28;20205;-80
2021/04/06 12:10:56;;;;;;;6.10;5.30;;;5.80;99.90;;;;;;4987077;28;20202;-81
2021/04/06 12:13:23;;;;;;;5.50;5.00;;;5.80;99.90;;;;;;4977130;28;20205;-80
2021/04/06 12:15:49;;;;;;;5.23;4.80;;;5.90;99.90;;;;;;4972887;28;20218;-81
2021/04/06 12:18:16;;;;;;;8.43;5.70;;;6.00;99.90;;;;;;4988443;28;20280;-80
2021/04/06 12:20:42;;;;;;;8.77;5.60;;;6.10;99.90;;;;;;4975959;28;20202;-81
2021/04/06 12:23:08;;;;;;;7.47;5.00;;;6.30;99.90;;;;;;4978756;28;20203;-80
2021/04/06 12:25:35;;;;;;;7.40;5.23;;;6.40;99.90;;;;;;4975417;28;20210;-80
2021/04/06 12:28:01;;;;;;;7.20;5.57;;;6.40;99.90;;;;;;4979760;28;20202;-79
2021/04/06 12:30:29;;;;;;;5.63;5.10;;;6.50;99.90;;;;;;4981607;28;20239;-79
2021/04/06 12:32:56;;;;;;;6.00;5.50;;;6.80;99.90;;;;;;4976529;28;20199;-80
2021/04/06 12:35:22;;;;;;;7.07;5.53;;;6.90;99.90;;;;;;4974199;28;20301;-78
2021/04/06 12:37:49;;;;;;;5.83;5.20;;;6.80;99.90;;;;;;4988061;28;20691;-79
2021/04/06 12:40:16;;;;;;;7.47;5.40;;;6.90;99.90;;;;;;4980290;28;20199;-81
2021/04/06 12:42:42;;;;;;;5.43;5.03;;;7.10;99.90;;;;;;4977563;28;20687;-78
2021/04/06 12:45:13;;;;;;;6.00;4.93;;;7.30;99.90;;;;;;4978157;28;20231;-79
2021/04/06 12:47:40;;;;;;;7.40;5.30;;;7.50;99.90;;;;;;4984077;28;20200;-81
2021/04/06 12:50:08;;;;;;;6.80;5.20;;;7.50;99.90;;;;;;4974149;28;20200;-81
2021/04/06 12:52:35;;;;;;;5.03;4.63;;;7.40;99.90;;;;;;4989253;28;20222;-81
2021/04/06 12:55:01;;;;;;;5.23;4.73;;;7.30;99.90;;;;;;4976543;28;20221;-80
2021/04/06 12:57:27;;;;;;;6.40;4.60;;;7.50;99.90;;;;;;4982286;28;20209;-81
2021/04/06 12:59:54;;;;;;;6.93;5.10;;;7.80;99.90;;;;;;4978040;28;20206;-80
2021/04/06 13:02:21;;;;;;;6.80;4.97;;;8.10;99.90;;;;;;4989636;28;20795;-78
2021/04/06 13:04:48;;;;;;;5.33;4.80;;;8.10;99.90;;;;;;4979215;28;20228;-78